Thorndike, Massachusetts
Current Conditions -  °F | °C
As of 2:58 AM on Sunday 26 Oct 2014 (Local Time) from KCEF Reporting Station
Scattered Clouds Scattered Clouds  
Wind Chill: 47°   Ceiling: Unl
Heat Index: 49°   Visibility: 10mi
Dew Point: 43°   Wind: 6mph
Humidity: 80%   Direction: 180°S
Pressure: 29.48"   Gusts: NA
Location:  42.19°N, 72.34°W
Report Text: KCEF 260658Z AUTO 18005KT 10SM FEW090 SCT120 09/06 A2948 RMK AO2 SLP989 T00940061
Loading
Personal Weather Stations






























Interactive Weather Map
Tropical Storm Tracking
New forecast layout! Learn more

10-Day Weather Forecast

Advertisements
Track Severe Weather on mobile